Lulworth, United Kingdom
Current Conditions -  °F | °C
As of 2:20 PM on Thursday 27 Nov 2014 (Local Time) from EGHH Reporting Station
Broken Clouds Broken Clouds  
Wind Chill: 45°   Ceiling: 1900
Heat Index: 48°   Visibility: 4mi
Dew Point: 48°   Wind: 8mph
Humidity: 100%   Direction: 80°E
Pressure: 29.53"   Gusts: NA
Location:  50.62°N, 2.17°W
Report Text: EGHH 271420Z 08007KT 7000 FEW005 BKN019 09/09 Q1000
Loading
Personal Weather Stations






























Interactive Weather Map New forecast layout! Learn more

10-Day Weather Forecast

Advertisements
Track Severe Weather on mobile